sensor_id;sensor_type;location;lat;lon;timestamp;noise_LAeq;noise_LA_min;noise_LA_max;noise_LA01;noise_LA95
60116;Laerm;62818;49.394;8.686;2023-05-10T00:00:12;71.17;44.94;82.51;;
60116;Laerm;62818;49.394;8.686;2023-05-10T00:01:13;70.83;43.72;82.59;;
60116;Laerm;62818;49.394;8.686;2023-05-10T00:02:14;71.39;43.14;82.29;;
60116;Laerm;62818;49.394;8.686;2023-05-10T00:03:14;71.33;44.03;82.99;;
60116;Laerm;62818;49.394;8.686;2023-05-10T00:04:14;72.24;42.98;82.71;;
60116;Laerm;62818;49.394;8.686;2023-05-10T00:05:15;71.16;43.39;82.42;;
60116;Laerm;62818;49.394;8.686;2023-05-10T00:06:16;72.73;43.54;82.86;;
60116;Laerm;62818;49.394;8.686;2023-05-10T00:07:16;70.99;42.65;82.58;;
60116;Laerm;62818;49.394;8.686;2023-05-10T00:08:17;71.35;42.71;82.48;;
60116;Laerm;62818;49.394;8.686;2023-05-10T00:09:18;71.81;43.19;82.76;;
60116;Laerm;62818;49.394;8.686;2023-05-10T00:10:18;72.15;44.47;82.53;;
60116;Laerm;62818;49.394;8.686;2023-05-10T00:11:19;71.55;42.53;82.65;;
60116;Laerm;62818;49.394;8.686;2023-05-10T00:12:20;71.58;43.77;83.04;;
60116;Laerm;62818;49.394;8.686;2023-05-10T00:13:22;73.06;43.54;83.19;;
60116;Laerm;62818;49.394;8.686;2023-05-10T00:14:22;71.96;42.65;82.96;;
60116;Laerm;62818;49.394;8.686;2023-05-10T00:15:23;73.11;42.41;83.24;;
60116;Laerm;62818;49.394;8.686;2023-05-10T00:16:23;72.56;42.16;82.85;;
60116;Laerm;62818;49.394;8.686;2023-05-10T00:17:24;72.46;42.35;83.23;;
60116;Laerm;62818;49.394;8.686;2023-05-10T00:18:24;72.65;42.65;82.94;;
60116;Laerm;62818;49.394;8.686;2023-05-10T00:19:25;71.39;42.65;83.12;;
60116;Laerm;62818;49.394;8.686;2023-05-10T00:20:25;71.53;42.59;82.43;;
60116;Laerm;62818;49.394;8.686;2023-05-10T00:21:26;72.51;41.22;83.08;;
60116;Laerm;62818;49.394;8.686;2023-05-10T00:22:28;73.41;41.68;83.08;;
60116;Laerm;62818;49.394;8.686;2023-05-10T00:23:28;72.18;42.53;82.83;;
60116;Laerm;62818;49.394;8.686;2023-05-10T00:24:29;72.07;42.03;83.19;;
60116;Laerm;62818;49.394;8.686;2023-05-10T00:25:30;72.59;43.14;82.75;;
60116;Laerm;62818;49.394;8.686;2023-05-10T00:26:30;71.22;41.89;82.92;;
60116;Laerm;62818;49.394;8.686;2023-05-10T00:27:31;72.74;42.16;83.35;;
60116;Laerm;62818;49.394;8.686;2023-05-10T00:28:31;71.74;43.44;82.94;;
60116;Laerm;62818;49.394;8.686;2023-05-10T00:29:32;72.23;42.41;83.22;;
60116;Laerm;62818;49.394;8.686;2023-05-10T00:30:33;71.34;42.59;82.75;;
60116;Laerm;62818;49.394;8.686;2023-05-10T00:31:34;72.65;41.96;83.47;;
60116;Laerm;62818;49.394;8.686;2023-05-10T00:32:34;71.99;42.41;83.23;;
60116;Laerm;62818;49.394;8.686;2023-05-10T00:33:35;71.43;42.76;82.87;;
60116;Laerm;62818;49.394;8.686;2023-05-10T00:34:35;71.99;42.93;83.12;;
60116;Laerm;62818;49.394;8.686;2023-05-10T00:35:36;71.28;44.15;82.67;;
60116;Laerm;62818;49.394;8.686;2023-05-10T00:36:38;55.91;43.94;78.14;;
60116;Laerm;62818;49.394;8.686;2023-05-10T00:37:38;72.58;44.15;82.68;;
60116;Laerm;62818;49.394;8.686;2023-05-10T00:38:38;73.01;44.20;82.60;;
60116;Laerm;62818;49.394;8.686;2023-05-10T00:39:39;73.39;44.31;83.14;;
60116;Laerm;62818;49.394;8.686;2023-05-10T00:40:40;73.45;44.27;82.84;;
60116;Laerm;62818;49.394;8.686;2023-05-10T00:41:41;71.92;44.54;83.26;;
60116;Laerm;62818;49.394;8.686;2023-05-10T00:42:41;72.79;44.19;82.64;;
60116;Laerm;62818;49.394;8.686;2023-05-10T00:43:42;71.25;44.27;82.54;;
60116;Laerm;62818;49.394;8.686;2023-05-10T00:44:42;72.03;45.51;82.91;;
60116;Laerm;62818;49.394;8.686;2023-05-10T00:45:43;70.89;44.73;81.94;;
60116;Laerm;62818;49.394;8.686;2023-05-10T00:46:44;71.55;44.19;82.93;;
60116;Laerm;62818;49.394;8.686;2023-05-10T00:47:45;50.07;44.11;68.89;;
60116;Laerm;62818;49.394;8.686;2023-05-10T00:48:45;72.38;44.47;82.38;;
60116;Laerm;62818;49.394;8.686;2023-05-10T00:49:46;71.97;44.19;82.65;;
60116;Laerm;62818;49.394;8.686;2023-05-10T00:50:47;71.44;44.69;82.50;;
60116;Laerm;62818;49.394;8.686;2023-05-10T00:51:48;71.21;46.02;82.46;;
60116;Laerm;62818;49.394;8.686;2023-05-10T00:52:50;71.40;44.19;82.98;;
60116;Laerm;62818;49.394;8.686;2023-05-10T00:53:51;70.56;45.23;81.54;;
60116;Laerm;62818;49.394;8.686;2023-05-10T00:54:52;72.57;44.07;82.75;;
60116;Laerm;62818;49.394;8.686;2023-05-10T00:55:53;72.20;44.11;82.77;;
60116;Laerm;62818;49.394;8.686;2023-05-10T00:56:53;71.12;44.15;82.57;;
60116;Laerm;62818;49.394;8.686;2023-05-10T00:57:54;72.05;43.77;83.46;;
60116;Laerm;62818;49.394;8.686;2023-05-10T00:58:55;72.36;43.86;83.01;;
60116;Laerm;62818;49.394;8.686;2023-05-10T00:59:56;47.22;43.72;67.41;;
60116;Laerm;62818;49.394;8.686;2023-05-10T01:00:58;73.53;44.07;82.96;;
60116;Laerm;62818;49.394;8.686;2023-05-10T01:01:59;73.75;43.89;82.78;;
60116;Laerm;62818;49.394;8.686;2023-05-10T01:03:00;73.64;44.76;82.51;;
60116;Laerm;62818;49.394;8.686;2023-05-10T01:04:01;73.16;44.65;82.93;;
60116;Laerm;62818;49.394;8.686;2023-05-10T01:05:03;72.28;44.35;82.88;;
60116;Laerm;62818;49.394;8.686;2023-05-10T01:06:04;73.05;44.27;83.02;;
60116;Laerm;62818;49.394;8.686;2023-05-10T01:07:05;73.10;43.90;82.79;;
60116;Laerm;62818;49.394;8.686;2023-05-10T01:12:49;71.33;44.07;82.73;;
60116;Laerm;62818;49.394;8.686;2023-05-10T01:13:56;72.99;44.80;83.04;;
60116;Laerm;62818;49.394;8.686;2023-05-10T01:14:57;74.09;43.77;83.22;;
60116;Laerm;62818;49.394;8.686;2023-05-10T01:15:59;73.02;44.07;83.01;;
60116;Laerm;62818;49.394;8.686;2023-05-10T01:17:02;73.58;44.07;82.74;;
60116;Laerm;62818;49.394;8.686;2023-05-10T01:18:03;73.43;43.99;83.02;;
60116;Laerm;62818;49.394;8.686;2023-05-10T01:20:16;72.81;44.07;83.17;;
60116;Laerm;62818;49.394;8.686;2023-05-10T01:21:49;71.83;43.94;83.17;;
60116;Laerm;62818;49.394;8.686;2023-05-10T01:23:28;71.29;44.07;83.39;;
60116;Laerm;62818;49.394;8.686;2023-05-10T01:25:09;71.62;43.99;82.90;;
60116;Laerm;62818;49.394;8.686;2023-05-10T01:26:23;71.61;43.90;83.08;;
60116;Laerm;62818;49.394;8.686;2023-05-10T01:28:16;70.72;43.94;83.10;;
60116;Laerm;62818;49.394;8.686;2023-05-10T01:32:59;71.60;43.94;82.98;;
60116;Laerm;62818;49.394;8.686;2023-05-10T01:34:13;72.32;43.86;83.20;;
60116;Laerm;62818;49.394;8.686;2023-05-10T01:35:25;73.57;43.94;82.99;;
60116;Laerm;62818;49.394;8.686;2023-05-10T01:36:35;73.18;43.86;83.09;;
60116;Laerm;62818;49.394;8.686;2023-05-10T01:37:47;72.57;44.03;83.31;;
60116;Laerm;62818;49.394;8.686;2023-05-10T01:42:17;71.92;44.23;82.97;;
60116;Laerm;62818;49.394;8.686;2023-05-10T01:43:27;73.41;44.31;83.03;;
60116;Laerm;62818;49.394;8.686;2023-05-10T01:45:19;73.52;44.23;83.56;;
60116;Laerm;62818;49.394;8.686;2023-05-10T01:46:08;72.11;43.99;83.20;;
60116;Laerm;62818;49.394;8.686;2023-05-10T01:47:18;72.84;44.19;83.02;;
60116;Laerm;62818;49.394;8.686;2023-05-10T01:48:22;73.21;44.15;82.72;;
60116;Laerm;62818;49.394;8.686;2023-05-10T01:49:31;73.19;44.19;82.68;;
60116;Laerm;62818;49.394;8.686;2023-05-10T01:50:35;73.36;44.07;82.98;;
60116;Laerm;62818;49.394;8.686;2023-05-10T01:51:44;73.10;44.03;82.39;;
60116;Laerm;62818;49.394;8.686;2023-05-10T01:52:58;72.17;43.86;83.20;;
60116;Laerm;62818;49.394;8.686;2023-05-10T01:54:01;45.38;43.90;48.91;;
60116;Laerm;62818;49.394;8.686;2023-05-10T01:55:06;72.93;44.07;82.59;;
60116;Laerm;62818;49.394;8.686;2023-05-10T01:56:11;73.55;43.86;82.69;;
60116;Laerm;62818;49.394;8.686;2023-05-10T01:57:15;73.56;44.04;83.04;;
60116;Laerm;62818;49.394;8.686;2023-05-10T01:58:26;71.73;44.31;82.69;;
60116;Laerm;62818;49.394;8.686;2023-05-10T01:59:33;73.25;45.48;82.77;;
60116;Laerm;62818;49.394;8.686;2023-05-10T02:00:46;72.79;44.35;83.10;;
60116;Laerm;62818;49.394;8.686;2023-05-10T02:01:50;72.06;44.23;82.76;;
60116;Laerm;62818;49.394;8.686;2023-05-10T02:02:53;71.83;44.03;82.29;;
60116;Laerm;62818;49.394;8.686;2023-05-10T02:03:57;73.06;44.07;82.75;;
60116;Laerm;62818;49.394;8.686;2023-05-10T02:04:59;72.74;43.99;83.09;;
60116;Laerm;62818;49.394;8.686;2023-05-10T02:06:00;71.78;44.51;82.55;;
60116;Laerm;62818;49.394;8.686;2023-05-10T02:07:03;72.28;44.15;82.91;;
60116;Laerm;62818;49.394;8.686;2023-05-10T02:08:06;72.37;44.19;82.75;;
60116;Laerm;62818;49.394;8.686;2023-05-10T02:09:10;72.14;44.03;82.58;;
60116;Laerm;62818;49.394;8.686;2023-05-10T02:10:14;72.87;44.31;83.08;;
60116;Laerm;62818;49.394;8.686;2023-05-10T02:11:18;71.80;43.99;83.54;;
60116;Laerm;62818;49.394;8.686;2023-05-10T02:12:20;72.20;44.39;82.74;;
60116;Laerm;62818;49.394;8.686;2023-05-10T02:13:23;73.05;44.27;82.76;;
60116;Laerm;62818;49.394;8.686;2023-05-10T02:14:26;72.05;44.19;82.94;;
60116;Laerm;62818;49.394;8.686;2023-05-10T02:15:29;72.69;44.39;83.11;;
60116;Laerm;62818;49.394;8.686;2023-05-10T02:16:31;73.78;44.43;82.93;;
60116;Laerm;62818;49.394;8.686;2023-05-10T02:17:32;71.39;44.19;82.79;;
60116;Laerm;62818;49.394;8.686;2023-05-10T02:18:35;71.80;44.31;82.51;;
60116;Laerm;62818;49.394;8.686;2023-05-10T02:19:40;72.92;44.83;82.73;;
60116;Laerm;62818;49.394;8.686;2023-05-10T02:20:43;73.55;44.03;82.70;;
60116;Laerm;62818;49.394;8.686;2023-05-10T02:21:46;71.52;44.11;82.99;;
60116;Laerm;62818;49.394;8.686;2023-05-10T02:22:51;71.73;44.58;82.84;;
60116;Laerm;62818;49.394;8.686;2023-05-10T02:23:53;72.33;44.73;83.02;;
60116;Laerm;62818;49.394;8.686;2023-05-10T02:24:58;72.68;44.27;82.59;;
60116;Laerm;62818;49.394;8.686;2023-05-10T02:26:01;72.24;44.92;83.12;;
60116;Laerm;62818;49.394;8.686;2023-05-10T02:27:03;72.55;44.73;82.68;;
60116;Laerm;62818;49.394;8.686;2023-05-10T02:28:06;73.41;44.19;83.27;;
60116;Laerm;62818;49.394;8.686;2023-05-10T02:29:09;71.11;44.11;82.75;;
60116;Laerm;62818;49.394;8.686;2023-05-10T02:30:11;71.98;40.98;82.53;;
60116;Laerm;62818;49.394;8.686;2023-05-10T02:31:13;72.19;44.27;83.09;;
60116;Laerm;62818;49.394;8.686;2023-05-10T02:32:16;72.98;44.73;82.90;;
60116;Laerm;62818;49.394;8.686;2023-05-10T02:33:19;72.01;45.14;82.76;;
60116;Laerm;62818;49.394;8.686;2023-05-10T02:34:23;72.20;44.94;82.89;;
60116;Laerm;62818;49.394;8.686;2023-05-10T02:35:27;72.29;44.97;82.66;;
60116;Laerm;62818;49.394;8.686;2023-05-10T02:36:29;71.66;44.76;82.72;;
60116;Laerm;62818;49.394;8.686;2023-05-10T02:37:31;72.69;44.94;82.79;;
60116;Laerm;62818;49.394;8.686;2023-05-10T02:38:34;72.82;44.58;82.86;;
60116;Laerm;62818;49.394;8.686;2023-05-10T02:39:36;72.99;44.58;82.70;;
60116;Laerm;62818;49.394;8.686;2023-05-10T02:40:37;70.81;43.99;81.99;;
60116;Laerm;62818;49.394;8.686;2023-05-10T02:41:40;48.50;44.20;67.31;;
60116;Laerm;62818;49.394;8.686;2023-05-10T02:42:43;72.02;40.71;82.86;;
60116;Laerm;62818;49.394;8.686;2023-05-10T02:43:46;72.48;41.89;82.66;;
60116;Laerm;62818;49.394;8.686;2023-05-10T02:44:50;73.36;42.59;82.90;;
60116;Laerm;62818;49.394;8.686;2023-05-10T02:45:53;72.85;42.65;82.70;;
60116;Laerm;62818;49.394;8.686;2023-05-10T02:46:53;71.90;44.23;82.67;;
60116;Laerm;62818;49.394;8.686;2023-05-10T02:47:56;72.76;44.31;82.80;;
60116;Laerm;62818;49.394;8.686;2023-05-10T02:48:57;72.08;44.39;82.99;;
60116;Laerm;62818;49.394;8.686;2023-05-10T02:49:58;71.32;44.97;82.24;;
60116;Laerm;62818;49.394;8.686;2023-05-10T02:51:05;72.02;44.51;82.91;;
60116;Laerm;62818;49.394;8.686;2023-05-10T02:52:08;72.97;44.76;82.33;;
60116;Laerm;62818;49.394;8.686;2023-05-10T02:53:18;70.89;45.30;82.53;;
60116;Laerm;62818;49.394;8.686;2023-05-10T02:54:29;72.41;45.66;82.86;;
60116;Laerm;62818;49.394;8.686;2023-05-10T02:55:36;72.50;45.17;82.97;;
60116;Laerm;62818;49.394;8.686;2023-05-10T02:56:49;72.28;45.20;83.09;;
60116;Laerm;62818;49.394;8.686;2023-05-10T02:57:59;71.76;44.87;82.68;;
60116;Laerm;62818;49.394;8.686;2023-05-10T02:59:00;71.85;45.42;82.47;;
60116;Laerm;62818;49.394;8.686;2023-05-10T03:00:02;72.27;45.14;82.84;;
60116;Laerm;62818;49.394;8.686;2023-05-10T03:01:03;72.45;45.39;82.87;;
60116;Laerm;62818;49.394;8.686;2023-05-10T03:02:04;73.23;45.57;83.03;;
60116;Laerm;62818;49.394;8.686;2023-05-10T03:03:05;72.13;44.43;82.61;;
60116;Laerm;62818;49.394;8.686;2023-05-10T03:04:06;72.64;44.51;82.85;;
60116;Laerm;62818;49.394;8.686;2023-05-10T03:05:07;72.84;44.90;83.06;;
60116;Laerm;62818;49.394;8.686;2023-05-10T03:06:08;71.46;45.20;82.72;;
60116;Laerm;62818;49.394;8.686;2023-05-10T03:07:10;71.71;44.58;82.90;;
60116;Laerm;62818;49.394;8.686;2023-05-10T03:08:11;72.09;45.69;83.06;;
60116;Laerm;62818;49.394;8.686;2023-05-10T03:09:12;72.96;45.11;82.57;;
60116;Laerm;62818;49.394;8.686;2023-05-10T03:10:15;71.83;44.90;82.18;;
60116;Laerm;62818;49.394;8.686;2023-05-10T03:12:00;69.41;45.33;82.98;;
60116;Laerm;62818;49.394;8.686;2023-05-10T03:13:13;72.32;45.91;82.87;;
60116;Laerm;62818;49.394;8.686;2023-05-10T03:17:36;71.86;44.94;82.49;;
60116;Laerm;62818;49.394;8.686;2023-05-10T03:19:12;71.79;45.28;82.93;;
60116;Laerm;62818;49.394;8.686;2023-05-10T03:21:41;73.56;46.13;82.87;;
60116;Laerm;62818;49.394;8.686;2023-05-10T03:22:51;72.99;44.94;83.12;;
60116;Laerm;62818;49.394;8.686;2023-05-10T03:24:07;72.84;45.36;83.00;;
60116;Laerm;62818;49.394;8.686;2023-05-10T03:25:11;73.84;46.52;82.70;;
60116;Laerm;62818;49.394;8.686;2023-05-10T03:26:24;72.95;46.64;82.77;;
60116;Laerm;62818;49.394;8.686;2023-05-10T03:27:27;73.94;45.36;82.52;;
60116;Laerm;62818;49.394;8.686;2023-05-10T03:28:29;73.55;45.04;82.44;;
60116;Laerm;62818;49.394;8.686;2023-05-10T03:29:31;73.42;44.69;82.87;;
60116;Laerm;62818;49.394;8.686;2023-05-10T03:30:33;73.79;44.69;83.25;;
60116;Laerm;62818;49.394;8.686;2023-05-10T03:31:35;73.40;44.69;82.40;;
60116;Laerm;62818;49.394;8.686;2023-05-10T03:32:35;73.19;47.24;83.18;;
60116;Laerm;62818;49.394;8.686;2023-05-10T03:33:49;72.21;44.90;82.71;;
60116;Laerm;62818;49.394;8.686;2023-05-10T03:34:50;73.75;45.42;82.58;;
60116;Laerm;62818;49.394;8.686;2023-05-10T03:35:50;73.31;45.86;82.68;;
60116;Laerm;62818;49.394;8.686;2023-05-10T03:36:51;73.61;45.27;83.04;;
60116;Laerm;62818;49.394;8.686;2023-05-10T03:37:52;73.07;44.97;83.10;;
60116;Laerm;62818;49.394;8.686;2023-05-10T03:38:52;73.42;45.86;82.48;;
60116;Laerm;62818;49.394;8.686;2023-05-10T03:39:53;73.55;45.42;82.80;;
60116;Laerm;62818;49.394;8.686;2023-05-10T03:40:53;73.73;45.42;83.11;;
60116;Laerm;62818;49.394;8.686;2023-05-10T03:41:54;73.58;45.75;83.14;;
60116;Laerm;62818;49.394;8.686;2023-05-10T03:42:55;72.82;45.40;82.89;;
60116;Laerm;62818;49.394;8.686;2023-05-10T03:43:55;73.02;45.39;82.70;;
60116;Laerm;62818;49.394;8.686;2023-05-10T03:44:56;73.04;46.43;82.70;;
60116;Laerm;62818;49.394;8.686;2023-05-10T03:45:56;72.69;46.18;82.78;;
60116;Laerm;62818;49.394;8.686;2023-05-10T03:46:57;73.11;47.22;82.90;;
60116;Laerm;62818;49.394;8.686;2023-05-10T03:47:58;73.20;48.28;83.11;;
60116;Laerm;62818;49.394;8.686;2023-05-10T03:48:58;72.69;47.74;82.85;;
60116;Laerm;62818;49.394;8.686;2023-05-10T03:49:59;73.24;48.43;82.87;;
60116;Laerm;62818;49.394;8.686;2023-05-10T03:51:00;73.68;48.02;82.97;;
60116;Laerm;62818;49.394;8.686;2023-05-10T03:52:00;72.83;48.02;82.78;;
60116;Laerm;62818;49.394;8.686;2023-05-10T03:53:01;73.27;47.54;83.18;;
60116;Laerm;62818;49.394;8.686;2023-05-10T03:54:02;72.80;46.80;82.70;;
60116;Laerm;62818;49.394;8.686;2023-05-10T03:55:03;72.79;45.91;82.74;;
60116;Laerm;62818;49.394;8.686;2023-05-10T03:56:04;73.05;46.95;82.74;;
60116;Laerm;62818;49.394;8.686;2023-05-10T03:57:04;73.01;45.80;82.51;;
60116;Laerm;62818;49.394;8.686;2023-05-10T03:58:05;73.21;46.18;82.56;;
60116;Laerm;62818;49.394;8.686;2023-05-10T03:59:05;73.42;47.16;83.09;;
60116;Laerm;62818;49.394;8.686;2023-05-10T04:00:08;73.33;45.83;82.86;;
60116;Laerm;62818;49.394;8.686;2023-05-10T04:01:09;73.74;46.20;82.94;;
60116;Laerm;62818;49.394;8.686;2023-05-10T04:02:10;73.37;45.40;82.56;;
60116;Laerm;62818;49.394;8.686;2023-05-10T04:03:12;73.17;45.11;82.91;;
60116;Laerm;62818;49.394;8.686;2023-05-10T04:04:12;73.28;45.30;82.96;;
60116;Laerm;62818;49.394;8.686;2023-05-10T04:05:13;73.40;46.52;82.72;;
60116;Laerm;62818;49.394;8.686;2023-05-10T04:06:13;73.34;47.16;82.82;;
60116;Laerm;62818;49.394;8.686;2023-05-10T04:07:14;73.36;49.69;82.59;;
60116;Laerm;62818;49.394;8.686;2023-05-10T04:08:15;72.67;50.62;82.61;;
60116;Laerm;62818;49.394;8.686;2023-05-10T04:09:16;72.45;50.75;82.70;;
60116;Laerm;62818;49.394;8.686;2023-05-10T04:10:17;72.66;51.52;82.91;;
60116;Laerm;62818;49.394;8.686;2023-05-10T04:11:18;72.61;53.74;82.90;;
60116;Laerm;62818;49.394;8.686;2023-05-10T04:12:18;73.09;47.63;82.66;;
60116;Laerm;62818;49.394;8.686;2023-05-10T04:13:18;73.09;47.86;82.64;;
60116;Laerm;62818;49.394;8.686;2023-05-10T04:14:19;72.48;46.66;82.51;;
60116;Laerm;62818;49.394;8.686;2023-05-10T04:15:20;73.00;46.89;82.63;;
60116;Laerm;62818;49.394;8.686;2023-05-10T04:16:21;73.01;46.10;82.86;;
60116;Laerm;62818;49.394;8.686;2023-05-10T04:17:21;73.38;49.90;82.89;;
60116;Laerm;62818;49.394;8.686;2023-05-10T04:18:22;73.04;47.88;82.67;;
60116;Laerm;62818;49.394;8.686;2023-05-10T04:19:22;72.54;47.90;82.37;;
60116;Laerm;62818;49.394;8.686;2023-05-10T04:20:24;73.00;48.58;82.27;;
60116;Laerm;62818;49.394;8.686;2023-05-10T04:21:24;73.04;45.54;82.59;;
60116;Laerm;62818;49.394;8.686;2023-05-10T04:22:25;72.87;46.33;82.79;;
60116;Laerm;62818;49.394;8.686;2023-05-10T04:23:27;73.69;49.25;82.60;;
60116;Laerm;62818;49.394;8.686;2023-05-10T04:24:27;72.99;46.45;82.57;;
60116;Laerm;62818;49.394;8.686;2023-05-10T04:25:28;73.00;46.40;85.78;;
60116;Laerm;62818;49.394;8.686;2023-05-10T04:26:28;72.89;47.63;82.28;;
60116;Laerm;62818;49.394;8.686;2023-05-10T04:27:29;72.89;46.57;82.94;;
60116;Laerm;62818;49.394;8.686;2023-05-10T04:28:30;73.39;45.27;82.26;;
60116;Laerm;62818;49.394;8.686;2023-05-10T04:29:30;72.49;45.54;82.78;;
60116;Laerm;62818;49.394;8.686;2023-05-10T04:30:31;73.74;52.12;82.43;;
60116;Laerm;62818;49.394;8.686;2023-05-10T04:31:31;72.32;49.57;82.55;;
60116;Laerm;62818;49.394;8.686;2023-05-10T04:32:32;72.92;46.80;82.93;;
60116;Laerm;62818;49.394;8.686;2023-05-10T04:33:33;73.37;48.28;82.39;;
60116;Laerm;62818;49.394;8.686;2023-05-10T04:34:34;73.01;46.30;82.53;;
60116;Laerm;62818;49.394;8.686;2023-05-10T04:35:35;73.08;48.10;82.61;;
60116;Laerm;62818;49.394;8.686;2023-05-10T04:36:35;72.98;48.25;82.75;;
60116;Laerm;62818;49.394;8.686;2023-05-10T04:37:36;73.01;47.61;82.48;;
60116;Laerm;62818;49.394;8.686;2023-05-10T04:38:37;73.13;46.43;82.76;;
60116;Laerm;62818;49.394;8.686;2023-05-10T04:39:37;72.47;45.72;82.56;;
60116;Laerm;62818;49.394;8.686;2023-05-10T04:40:38;72.98;45.42;82.49;;
60116;Laerm;62818;49.394;8.686;2023-05-10T04:41:38;73.13;50.06;82.32;;
60116;Laerm;62818;49.394;8.686;2023-05-10T04:42:43;73.18;49.58;82.36;;
60116;Laerm;62818;49.394;8.686;2023-05-10T04:43:50;72.93;46.97;82.46;;
60116;Laerm;62818;49.394;8.686;2023-05-10T04:44:50;72.46;47.55;82.41;;
60116;Laerm;62818;49.394;8.686;2023-05-10T04:45:52;72.47;50.75;82.27;;
60116;Laerm;62818;49.394;8.686;2023-05-10T04:46:52;73.16;46.87;82.57;;
60116;Laerm;62818;49.394;8.686;2023-05-10T04:47:53;73.15;47.18;82.60;;
60116;Laerm;62818;49.394;8.686;2023-05-10T04:48:53;72.73;53.62;82.53;;
60116;Laerm;62818;49.394;8.686;2023-05-10T04:49:54;72.24;47.36;82.38;;
60116;Laerm;62818;49.394;8.686;2023-05-10T04:50:54;72.42;46.69;82.65;;
60116;Laerm;62818;49.394;8.686;2023-05-10T04:51:55;73.04;47.79;82.81;;
60116;Laerm;62818;49.394;8.686;2023-05-10T04:52:56;72.76;47.24;82.38;;
60116;Laerm;62818;49.394;8.686;2023-05-10T04:53:56;71.84;46.87;82.34;;
60116;Laerm;62818;49.394;8.686;2023-05-10T04:54:57;72.87;50.89;82.49;;
60116;Laerm;62818;49.394;8.686;2023-05-10T04:55:57;72.73;45.89;82.70;;
60116;Laerm;62818;49.394;8.686;2023-05-10T04:56:58;72.97;48.70;82.72;;
60116;Laerm;62818;49.394;8.686;2023-05-10T04:57:58;73.09;48.91;82.54;;
60116;Laerm;62818;49.394;8.686;2023-05-10T04:58:59;72.83;46.57;82.33;;
60116;Laerm;62818;49.394;8.686;2023-05-10T04:59:59;72.14;47.46;82.23;;
60116;Laerm;62818;49.394;8.686;2023-05-10T05:01:07;72.76;48.20;82.33;;
60116;Laerm;62818;49.394;8.686;2023-05-10T05:02:09;74.09;47.16;82.26;;
60116;Laerm;62818;49.394;8.686;2023-05-10T05:03:10;72.79;46.35;82.42;;
60116;Laerm;62818;49.394;8.686;2023-05-10T05:04:10;72.77;46.57;82.53;;
60116;Laerm;62818;49.394;8.686;2023-05-10T05:05:14;72.79;50.18;82.12;;
60116;Laerm;62818;49.394;8.686;2023-05-10T05:06:14;73.72;48.12;82.36;;
60116;Laerm;62818;49.394;8.686;2023-05-10T05:07:15;73.66;49.55;82.10;;
60116;Laerm;62818;49.394;8.686;2023-05-10T05:08:15;73.26;49.50;82.45;;
60116;Laerm;62818;49.394;8.686;2023-05-10T05:09:16;73.27;49.34;82.79;;
60116;Laerm;62818;49.394;8.686;2023-05-10T05:10:16;73.43;47.44;82.63;;
60116;Laerm;62818;49.394;8.686;2023-05-10T05:11:17;73.36;50.66;82.22;;
60116;Laerm;62818;49.394;8.686;2023-05-10T05:12:18;73.13;44.76;82.36;;
60116;Laerm;62818;49.394;8.686;2023-05-10T05:13:18;72.16;46.82;81.75;;
60116;Laerm;62818;49.394;8.686;2023-05-10T05:14:19;72.32;49.55;82.12;;
60116;Laerm;62818;49.394;8.686;2023-05-10T05:15:21;73.35;47.28;82.65;;
60116;Laerm;62818;49.394;8.686;2023-05-10T05:16:21;72.39;48.37;82.05;;
60116;Laerm;62818;49.394;8.686;2023-05-10T05:17:22;72.21;49.62;81.91;;
60116;Laerm;62818;49.394;8.686;2023-05-10T05:18:22;72.40;46.23;81.71;;
60116;Laerm;62818;49.394;8.686;2023-05-10T05:19:23;71.89;49.84;82.15;;
60116;Laerm;62818;49.394;8.686;2023-05-10T05:20:23;72.28;54.21;82.23;;
60116;Laerm;62818;49.394;8.686;2023-05-10T05:21:24;72.94;49.89;82.39;;
60116;Laerm;62818;49.394;8.686;2023-05-10T05:22:27;72.31;46.25;82.16;;
60116;Laerm;62818;49.394;8.686;2023-05-10T05:23:28;73.33;51.82;81.90;;
60116;Laerm;62818;49.394;8.686;2023-05-10T05:24:28;72.40;48.46;82.10;;
60116;Laerm;62818;49.394;8.686;2023-05-10T05:25:29;72.91;47.72;81.86;;
60116;Laerm;62818;49.394;8.686;2023-05-10T05:26:29;73.00;52.50;81.90;;
60116;Laerm;62818;49.394;8.686;2023-05-10T05:27:31;72.49;47.52;82.19;;
60116;Laerm;62818;49.394;8.686;2023-05-10T05:28:32;72.67;51.12;82.27;;
60116;Laerm;62818;49.394;8.686;2023-05-10T05:29:35;73.22;57.19;81.73;;
60116;Laerm;62818;49.394;8.686;2023-05-10T05:30:35;72.23;47.22;82.21;;
60116;Laerm;62818;49.394;8.686;2023-05-10T05:31:36;72.14;47.93;81.70;;
60116;Laerm;62818;49.394;8.686;2023-05-10T05:32:36;72.37;51.71;81.92;;
60116;Laerm;62818;49.394;8.686;2023-05-10T05:33:37;72.98;52.71;82.26;;
60116;Laerm;62818;49.394;8.686;2023-05-10T05:34:37;72.70;47.34;82.29;;
60116;Laerm;62818;49.394;8.686;2023-05-10T05:35:38;72.57;49.71;82.27;;
60116;Laerm;62818;49.394;8.686;2023-05-10T05:36:38;72.75;49.27;82.08;;
60116;Laerm;62818;49.394;8.686;2023-05-10T05:37:39;72.26;45.77;82.00;;
60116;Laerm;62818;49.394;8.686;2023-05-10T05:38:39;71.39;49.47;81.99;;
60116;Laerm;62818;49.394;8.686;2023-05-10T05:39:41;72.75;50.15;82.25;;
60116;Laerm;62818;49.394;8.686;2023-05-10T05:40:41;71.77;48.45;81.48;;
60116;Laerm;62818;49.394;8.686;2023-05-10T05:41:42;71.86;48.96;81.35;;
60116;Laerm;62818;49.394;8.686;2023-05-10T05:42:42;72.71;50.28;81.61;;
60116;Laerm;62818;49.394;8.686;2023-05-10T05:43:43;72.06;49.11;81.61;;
60116;Laerm;62818;49.394;8.686;2023-05-10T05:44:43;70.96;47.74;81.39;;
60116;Laerm;62818;49.394;8.686;2023-05-10T05:45:44;72.04;51.13;81.78;;
60116;Laerm;62818;49.394;8.686;2023-05-10T05:46:44;71.72;47.32;81.44;;
60116;Laerm;62818;49.394;8.686;2023-05-10T05:47:45;71.17;47.70;81.06;;
60116;Laerm;62818;49.394;8.686;2023-05-10T05:48:45;72.63;50.36;81.14;;
60116;Laerm;62818;49.394;8.686;2023-05-10T05:49:46;72.04;46.78;81.55;;
60116;Laerm;62818;49.394;8.686;2023-05-10T05:50:46;71.93;47.48;81.35;;
60116;Laerm;62818;49.394;8.686;2023-05-10T05:51:47;71.63;51.62;81.52;;
60116;Laerm;62818;49.394;8.686;2023-05-10T05:52:49;71.57;47.81;81.23;;
60116;Laerm;62818;49.394;8.686;2023-05-10T05:53:50;71.43;46.18;80.92;;
60116;Laerm;62818;49.394;8.686;2023-05-10T05:54:51;71.05;52.06;80.70;;
60116;Laerm;62818;49.394;8.686;2023-05-10T05:55:59;70.97;46.73;81.22;;
60116;Laerm;62818;49.394;8.686;2023-05-10T05:57:00;70.97;47.32;81.06;;
60116;Laerm;62818;49.394;8.686;2023-05-10T05:58:01;71.05;55.93;80.77;;
60116;Laerm;62818;49.394;8.686;2023-05-10T05:59:01;72.08;49.04;81.32;;
60116;Laerm;62818;49.394;8.686;2023-05-10T06:00:02;72.08;46.20;81.21;;
60116;Laerm;62818;49.394;8.686;2023-05-10T06:01:03;71.66;57.09;81.18;;
60116;Laerm;62818;49.394;8.686;2023-05-10T06:02:03;71.23;52.17;81.09;;
60116;Laerm;62818;49.394;8.686;2023-05-10T06:03:04;71.67;48.12;81.95;;
60116;Laerm;62818;49.394;8.686;2023-05-10T06:04:04;72.31;55.65;81.96;;
60116;Laerm;62818;49.394;8.686;2023-05-10T06:05:05;72.10;46.10;81.83;;
60116;Laerm;62818;49.394;8.686;2023-05-10T06:06:06;72.40;47.76;81.80;;
60116;Laerm;62818;49.394;8.686;2023-05-10T06:07:06;72.00;51.59;81.83;;
60116;Laerm;62818;49.394;8.686;2023-05-10T06:08:07;71.74;47.12;81.58;;
60116;Laerm;62818;49.394;8.686;2023-05-10T06:09:09;71.71;44.69;81.64;;